CheckWX is a tool to help pilots better visualize weather data.  It is not intended as a substitute for an official pre-flight weather briefing.

01:33:17 UTC

OJAM METAR
Amman-Marka International Airport
Amman, Jordan
Current

33 mins ago

OJAM 200100Z 24008KT 4000 -DZ SCT015 SCT025 08/06 Q1022 NOSIG
Observed
Jan-20 @ 01:00 UTC
Wind
  • 240° at 8 KTS
Visibility
4,000 meters
Flight Rules
IFR
Conditions
Light Drizzle
Cloud Levels
  • Scattered at 1,500' AGL
  • Scattered at 2,500' AGL
Temperature
C / 46°F
Dewpoint
C / 43°F
Humidity
87%
Altimeter
30.18" Hg
Pressure
1021.92 hPa
Previous

2 hours ago

OJAM 200000Z 24006KT 2500 DZRA BKN010 SCT025 BKN030 08/07 Q1021 NOSIG
Observed
Jan-20 @ 00:00 UTC
Wind
  • 240° at 6 KTS
Visibility
2,500 meters
Flight Rules
IFR
Conditions
Drizzle, Rain
Cloud Levels
  • Broken at 1,000' AGL
  • Scattered at 2,500' AGL
  • Broken at 3,000' AGL
Temperature
C / 46°F
Dewpoint
C / 45°F
Humidity
93%
Altimeter
30.15" Hg
Pressure
1020.92 hPa
Previous

3 hours ago

OJAM 192300Z 24007KT 3000 DZRA SCT010 SCT025 BKN030 08/07 Q1021 NOSIG
Observed
Jan-19 @ 23:00 UTC
Wind
  • 240° at 7 KTS
Visibility
3,000 meters
Flight Rules
IFR
Conditions
Drizzle, Rain
Cloud Levels
  • Scattered at 1,000' AGL
  • Scattered at 2,500' AGL
  • Broken at 3,000' AGL
Temperature
C / 46°F
Dewpoint
C / 45°F
Humidity
93%
Altimeter
30.15" Hg
Pressure
1020.92 hPa